Terminal Aerodrome Forecast
Issued by NWS

Home | Current Version | Previous Version | Text Only | Print | Product List | Glossary On
Versions: 1 2 3 4 5 6 7 8 9 10 11 12 13 14 15 16 17
072
FTUS45 KABQ 240206 AAB
TAFFMN
TAF AMD
KFMN 240206Z 2402/2424 29012G20KT 5SM -SN OVC015
      TEMPO 2402/2406 2SM -SN OVC006
     FM241500 27011KT P6SM OVC020
     FM241900 28015G23KT P6SM VCSH OVC035=

USA.gov is the U.S. government's official web portal to all federal, state and local government web resources and services.